Time;durP1;ratioP1;P1;durP2;ratioP2;P2;SDS_P1;SDS_P2;PMS_P1;PMS_P2;Temp;Humidity;BMP_temperature;BMP_pressure;BME280_temperature;BME280_humidity;BME280_pressure;Samples;Min_cycle;Max_cycle;Signal;HPM_P1;HPM_P2
2022/10/12 00:00:05;;;;;;;9.13;4.28;;;7.70;99.90;;;;;;5010337;28;20880;-62
2022/10/12 00:02:31;;;;;;;7.10;3.20;;;7.80;99.90;;;;;;4976636;28;20073;-63
2022/10/12 00:04:57;;;;;;;5.63;3.60;;;7.80;99.90;;;;;;4977851;28;20143;-61
2022/10/12 00:07:23;;;;;;;6.55;3.70;;;7.80;99.90;;;;;;5013474;28;20041;-62
2022/10/12 00:09:49;;;;;;;8.43;3.67;;;7.70;99.90;;;;;;4986454;28;20160;-62
2022/10/12 00:12:15;;;;;;;8.52;4.85;;;7.70;99.90;;;;;;5005851;28;20504;-60
2022/10/12 00:14:40;;;;;;;9.88;4.53;;;7.70;99.90;;;;;;4970838;28;20057;-62
2022/10/12 00:17:06;;;;;;;5.70;3.65;;;7.70;99.90;;;;;;4997856;28;20514;-61
2022/10/12 00:19:35;;;;;;;7.97;4.13;;;7.70;99.90;;;;;;4961707;28;20084;-61
2022/10/12 00:22:00;;;;;;;6.80;4.20;;;7.70;99.90;;;;;;4999368;28;20052;-61
2022/10/12 00:24:26;;;;;;;5.97;3.78;;;7.70;99.90;;;;;;5004716;28;20037;-62
2022/10/12 00:26:52;;;;;;;6.22;3.65;;;7.60;99.90;;;;;;4981062;28;20045;-61
2022/10/12 00:29:18;;;;;;;6.03;3.60;;;7.60;99.90;;;;;;4992514;28;20276;-62
2022/10/12 00:31:43;;;;;;;7.95;3.47;;;7.60;99.90;;;;;;4961898;28;20050;-61
2022/10/12 00:34:09;;;;;;;11.35;4.40;;;7.60;99.90;;;;;;4978683;28;20073;-63
2022/10/12 00:36:35;;;;;;;5.75;3.60;;;7.60;99.90;;;;;;4979146;28;20058;-61
2022/10/12 00:39:04;;;;;;;6.35;3.33;;;7.40;99.90;;;;;;4985711;28;20045;-63
2022/10/12 00:41:33;;;;;;;10.18;3.85;;;7.50;99.90;;;;;;4972024;28;20400;-61
2022/10/12 00:43:59;;;;;;;7.80;3.20;;;7.50;99.90;;;;;;4975348;28;20029;-61
2022/10/12 00:46:43;;;;;;;7.53;3.38;;;7.50;99.90;;;;;;4974837;28;20333;-60
2022/10/12 00:49:17;;;;;;;5.03;3.08;;;7.50;99.90;;;;;;4974465;28;20111;-61
2022/10/12 00:51:47;;;;;;;10.07;3.90;;;7.40;99.90;;;;;;4989899;28;20034;-61
2022/10/12 00:54:18;;;;;;;8.07;3.03;;;7.50;99.90;;;;;;4975567;28;20123;-62
2022/10/12 00:56:46;;;;;;;10.38;3.35;;;7.50;99.90;;;;;;4974799;28;20065;-60
2022/10/12 00:59:17;;;;;;;9.55;4.15;;;7.60;99.90;;;;;;4977069;28;20136;-62
2022/10/12 01:01:43;;;;;;;10.35;4.70;;;7.70;99.90;;;;;;4997302;28;21097;-61
2022/10/12 01:04:08;;;;;;;7.15;3.28;;;7.70;99.90;;;;;;4970386;28;20034;-60
2022/10/12 01:06:35;;;;;;;8.52;3.15;;;7.60;99.90;;;;;;4993833;28;20049;-61
2022/10/12 01:09:01;;;;;;;8.25;4.22;;;7.60;99.90;;;;;;5014759;28;20061;-63
2022/10/12 01:11:27;;;;;;;4.03;2.95;;;7.60;99.90;;;;;;5006437;28;20125;-63
2022/10/12 01:13:52;;;;;;;7.97;4.57;;;7.60;99.90;;;;;;5001876;28;20439;-61
2022/10/12 01:16:37;;;;;;;8.65;4.70;;;7.60;99.90;;;;;;5003290;28;20048;-61
2022/10/12 01:19:02;;;;;;;;;;;7.60;99.90;;;;;;5006131;28;20512;-62
2022/10/12 01:21:35;;;;;;;9.15;4.15;;;7.60;99.90;;;;;;5006390;28;19918;-62
2022/10/12 01:24:26;;;;;;;7.68;4.30;;;7.60;99.90;;;;;;5003757;28;20393;-61
2022/10/12 01:27:29;;;;;;;8.00;4.80;;;7.60;99.90;;;;;;4992421;28;20045;-62
2022/10/12 01:30:08;;;;;;;9.50;4.68;;;7.60;99.90;;;;;;4985805;28;20045;-63
2022/10/12 01:32:43;;;;;;;8.18;4.68;;;7.70;99.90;;;;;;5010289;28;20107;-63
2022/10/12 01:35:40;;;;;;;7.90;4.50;;;7.70;99.90;;;;;;5012880;28;20094;-63
2022/10/12 01:38:17;;;;;;;6.22;3.38;;;7.70;99.90;;;;;;5006833;28;20037;-62
2022/10/12 01:40:51;;;;;;;8.88;4.75;;;7.70;99.90;;;;;;4979970;28;20553;-61
2022/10/12 01:43:19;;;;;;;;;;;7.80;99.90;;;;;;4987533;28;20049;-60
2022/10/12 01:45:44;;;;;;;9.27;4.20;;;7.80;99.90;;;;;;4989056;28;19921;-62
2022/10/12 01:48:10;;;;;;;7.57;3.92;;;7.70;99.90;;;;;;4998889;28;20051;-62
2022/10/12 01:50:49;;;;;;;9.43;3.88;;;7.80;99.90;;;;;;4985553;28;20052;-60
2022/10/12 01:53:21;;;;;;;6.47;4.25;;;8.00;99.90;;;;;;4999731;28;20519;-62
2022/10/12 01:56:10;;;;;;;12.40;5.40;;;8.00;99.90;;;;;;4993252;28;20456;-60
2022/10/12 01:58:57;;;;;;;7.80;5.10;;;7.90;99.90;;;;;;4975343;28;20103;-61
2022/10/12 02:01:37;;;;;;;8.57;5.25;;;7.80;99.90;;;;;;4996391;28;20571;-62
2022/10/12 02:04:24;;;;;;;12.38;5.60;;;8.00;99.90;;;;;;4996519;28;20042;-61
2022/10/12 02:06:58;;;;;;;8.98;4.38;;;7.80;99.90;;;;;;5004439;28;20091;-62
2022/10/12 02:09:25;;;;;;;;;;;7.80;99.90;;;;;;5018754;28;20053;-63
2022/10/12 02:11:54;;;;;;;6.13;4.25;;;7.90;99.90;;;;;;5005375;28;19925;-62
2022/10/12 02:14:24;;;;;;;9.45;5.57;;;7.90;99.90;;;;;;5003322;28;20041;-60
2022/10/12 02:16:54;;;;;;;6.57;3.90;;;7.90;99.90;;;;;;5006091;28;20590;-62
2022/10/12 02:19:29;;;;;;;9.85;5.70;;;7.90;99.90;;;;;;4986602;28;20067;-62
2022/10/12 02:21:59;;;;;;;9.13;4.95;;;8.00;99.90;;;;;;5004545;28;20954;-61
2022/10/12 02:24:27;;;;;;;8.95;4.40;;;7.90;99.90;;;;;;5000901;28;20037;-62
2022/10/12 02:26:54;;;;;;;6.93;4.25;;;7.90;99.90;;;;;;5027481;28;20041;-61
2022/10/12 02:29:26;;;;;;;8.45;4.28;;;7.80;99.90;;;;;;4999108;28;20432;-62
2022/10/12 02:31:55;;;;;;;9.20;4.40;;;7.80;99.90;;;;;;5008375;28;20609;-63
2022/10/12 02:34:33;;;;;;;7.57;5.00;;;7.80;99.90;;;;;;5024502;28;20450;-60
2022/10/12 02:37:02;;;;;;;9.02;5.28;;;7.80;99.90;;;;;;5009824;28;20060;-61
2022/10/12 02:39:36;;;;;;;8.48;5.30;;;7.70;99.90;;;;;;5008261;28;20128;-62
2022/10/12 02:42:07;;;;;;;11.25;4.72;;;7.70;99.90;;;;;;5013310;28;20124;-62
2022/10/12 02:44:37;;;;;;;8.77;4.90;;;7.70;99.90;;;;;;4993594;28;20046;-63
2022/10/12 02:47:06;;;;;;;8.80;4.65;;;7.80;99.90;;;;;;5009872;28;20033;-63
2022/10/12 02:49:34;;;;;;;8.50;4.43;;;7.80;99.90;;;;;;5012537;28;20048;-63
2022/10/12 02:52:03;;;;;;;6.50;4.13;;;7.80;99.90;;;;;;5019220;28;20041;-61
2022/10/12 02:54:29;;;;;;;8.90;3.95;;;7.70;99.90;;;;;;5000214;28;20056;-61
2022/10/12 02:56:55;;;;;;;8.40;4.68;;;7.70;99.90;;;;;;5012939;28;20401;-62
2022/10/12 02:59:21;;;;;;;6.65;4.22;;;7.90;99.90;;;;;;5017960;28;20041;-62
2022/10/12 03:01:47;;;;;;;6.90;4.63;;;7.90;99.90;;;;;;5017300;28;20040;-62
2022/10/12 03:04:12;;;;;;;6.80;4.85;;;7.80;99.90;;;;;;4987612;28;20052;-62
2022/10/12 03:06:38;;;;;;;11.15;5.10;;;7.80;99.90;;;;;;5025590;28;20236;-63
2022/10/12 03:09:04;;;;;;;9.95;4.80;;;7.80;99.90;;;;;;5020987;28;20034;-61
2022/10/12 03:11:30;;;;;;;7.72;5.47;;;7.80;99.90;;;;;;5025295;28;20128;-61
2022/10/12 03:13:57;;;;;;;4.90;3.65;;;7.80;99.90;;;;;;5027676;28;20041;-62
2022/10/12 03:16:23;;;;;;;9.48;4.60;;;7.80;99.90;;;;;;5006372;28;20481;-63
2022/10/12 03:18:49;;;;;;;6.25;3.78;;;7.80;99.90;;;;;;5014189;28;20033;-63
2022/10/12 03:21:15;;;;;;;7.25;4.15;;;7.80;99.90;;;;;;5002248;28;20087;-62
2022/10/12 03:23:41;;;;;;;6.55;3.70;;;7.90;99.90;;;;;;4999526;28;20041;-62
2022/10/12 03:26:07;;;;;;;6.78;4.00;;;8.10;99.90;;;;;;5009716;28;20115;-63
2022/10/12 03:28:33;;;;;;;10.23;5.40;;;8.10;99.90;;;;;;5006071;28;20189;-63
2022/10/12 03:30:59;;;;;;;7.63;4.35;;;8.20;99.90;;;;;;5020245;28;20120;-62
2022/10/12 03:33:25;;;;;;;8.20;3.60;;;8.10;99.90;;;;;;5016044;28;20045;-62
2022/10/12 03:35:51;;;;;;;7.13;3.83;;;8.10;99.90;;;;;;5024011;28;20493;-62
2022/10/12 03:38:17;;;;;;;6.28;4.22;;;8.10;99.90;;;;;;5009018;28;20046;-62
2022/10/12 03:40:44;;;;;;;7.70;4.35;;;8.10;99.90;;;;;;4989554;28;20041;-61
2022/10/12 03:43:09;;;;;;;7.43;3.90;;;8.10;99.90;;;;;;4997132;28;20033;-62
2022/10/12 03:45:35;;;;;;;6.80;3.58;;;8.10;99.90;;;;;;4985694;28;20322;-62
2022/10/12 03:48:02;;;;;;;5.10;3.28;;;8.10;99.90;;;;;;5031313;28;20041;-63
2022/10/12 03:50:28;;;;;;;9.10;4.28;;;8.10;99.90;;;;;;5029251;28;20103;-62
2022/10/12 03:52:53;;;;;;;6.93;4.20;;;8.00;99.90;;;;;;5022447;28;20033;-63
2022/10/12 03:55:19;;;;;;;9.00;4.47;;;8.00;99.90;;;;;;5034925;28;20037;-60
2022/10/12 03:57:45;;;;;;;8.43;3.63;;;8.00;99.90;;;;;;5019176;28;20476;-63
2022/10/12 04:00:12;;;;;;;10.45;4.07;;;8.10;99.90;;;;;;4996726;28;20068;-62
2022/10/12 04:02:38;;;;;;;11.43;5.40;;;8.10;99.90;;;;;;5027658;28;20099;-63
2022/10/12 04:05:05;;;;;;;6.70;4.10;;;8.20;99.90;;;;;;5024085;28;20029;-62
2022/10/12 04:07:30;;;;;;;5.78;4.18;;;8.10;99.90;;;;;;5030717;28;20033;-62
2022/10/12 04:09:56;;;;;;;8.23;3.50;;;8.10;99.90;;;;;;5027177;28;20096;-62
2022/10/12 04:12:22;;;;;;;7.60;4.20;;;8.20;99.90;;;;;;5024949;28;20605;-63
2022/10/12 04:14:47;;;;;;;6.43;3.72;;;8.20;99.90;;;;;;5015004;28;20070;-63
2022/10/12 04:17:17;;;;;;;8.00;3.78;;;8.20;99.90;;;;;;5028435;28;20044;-61
2022/10/12 04:19:43;;;;;;;7.07;4.50;;;8.10;99.90;;;;;;5024867;28;20519;-62
2022/10/12 04:22:08;;;;;;;7.47;4.47;;;8.00;99.90;;;;;;5031053;28;20041;-63
2022/10/12 04:24:34;;;;;;;6.68;3.17;;;8.00;99.90;;;;;;5006818;28;20407;-62
2022/10/12 04:27:00;;;;;;;10.15;4.13;;;7.90;99.90;;;;;;5026789;28;20033;-62
2022/10/12 04:29:26;;;;;;;9.57;4.68;;;7.90;99.90;;;;;;5005677;28;20110;-60
2022/10/12 04:31:52;;;;;;;11.20;4.10;;;7.90;99.90;;;;;;5020502;28;20100;-62
2022/10/12 04:34:17;;;;;;;9.18;4.63;;;7.90;99.90;;;;;;5002424;28;20516;-63
2022/10/12 04:36:43;;;;;;;9.73;4.10;;;7.90;99.90;;;;;;5005070;28;20058;-60
2022/10/12 04:39:09;;;;;;;11.07;4.63;;;7.90;99.90;;;;;;5006134;28;20045;-62
2022/10/12 04:44:13;;;;;;;6.03;3.95;;;7.90;99.90;;;;;;5044315;28;20146;-80
2022/10/12 04:46:38;;;;;;;10.48;4.88;;;7.80;99.90;;;;;;4998631;28;20068;-78
2022/10/12 04:49:04;;;;;;;8.38;3.75;;;7.90;99.90;;;;;;5012873;28;20068;-81
2022/10/12 04:51:30;;;;;;;8.85;4.43;;;7.90;99.90;;;;;;5010062;28;20496;-78
2022/10/12 04:53:55;;;;;;;8.50;3.88;;;7.90;99.90;;;;;;4989528;28;20455;-80
2022/10/12 04:56:21;;;;;;;9.40;4.30;;;7.90;99.90;;;;;;5014663;28;20513;-80
2022/10/12 04:58:47;;;;;;;8.32;3.90;;;7.90;99.90;;;;;;5009364;28;20073;-80
2022/10/12 05:01:12;;;;;;;11.30;4.30;;;8.00;99.90;;;;;;4997809;28;20116;-81
2022/10/12 05:03:38;;;;;;;6.55;4.07;;;7.90;99.90;;;;;;4987755;28;20055;-80
2022/10/12 05:06:04;;;;;;;5.30;3.30;;;7.90;99.90;;;;;;5011803;28;20493;-79
2022/10/12 05:08:29;;;;;;;12.63;4.78;;;7.80;99.90;;;;;;4997960;28;20500;-81
2022/10/12 05:10:58;;;;;;;6.68;3.85;;;8.00;99.90;;;;;;4997749;28;20052;-78
2022/10/12 05:13:25;;;;;;;9.00;4.57;;;7.80;99.90;;;;;;5021161;28;20088;-81
2022/10/12 05:15:50;;;;;;;8.30;3.63;;;7.70;99.90;;;;;;4997053;28;20045;-81
2022/10/12 05:18:16;;;;;;;10.00;3.50;;;8.00;99.90;;;;;;5011906;28;20038;-80
2022/10/12 05:20:43;;;;;;;9.93;4.07;;;7.80;99.90;;;;;;5012223;28;20037;-80
2022/10/12 05:23:10;;;;;;;8.20;3.45;;;7.80;99.90;;;;;;5012194;28;20029;-81
2022/10/12 05:25:36;;;;;;;9.43;3.63;;;7.70;99.90;;;;;;4997225;28;20504;-80
2022/10/12 05:28:02;;;;;;;9.32;4.50;;;7.80;99.90;;;;;;4989774;28;20424;-77
2022/10/12 05:30:28;;;;;;;13.45;4.28;;;7.90;99.90;;;;;;5002412;28;20086;-81
2022/10/12 05:32:54;;;;;;;11.10;4.22;;;7.90;99.90;;;;;;5018470;28;20053;-80
2022/10/12 05:35:19;;;;;;;12.30;3.90;;;7.90;99.90;;;;;;4985300;28;20047;-78
2022/10/12 05:37:45;;;;;;;9.43;3.17;;;7.90;99.90;;;;;;5007922;28;20057;-80
2022/10/12 05:40:11;;;;;;;9.88;4.18;;;8.40;99.90;;;;;;5004594;28;20060;-81
2022/10/12 05:42:37;;;;;;;12.38;4.32;;;7.90;99.90;;;;;;5015269;28;20037;-79
2022/10/12 05:45:03;;;;;;;8.05;3.63;;;8.40;99.90;;;;;;5006867;28;20041;-80
2022/10/12 05:47:29;;;;;;;8.85;3.53;;;7.80;99.90;;;;;;4985696;28;20099;-80
2022/10/12 05:49:55;;;;;;;8.43;4.10;;;8.00;99.90;;;;;;4988278;28;20064;-80
2022/10/12 05:52:21;;;;;;;10.18;4.00;;;7.80;99.90;;;;;;4991461;28;20045;-80
2022/10/12 05:54:47;;;;;;;8.73;3.20;;;7.80;99.90;;;;;;5000640;28;20041;-80
2022/10/12 05:57:14;;;;;;;10.70;4.30;;;8.20;99.90;;;;;;4987111;28;20124;-77
2022/10/12 05:59:41;;;;;;;10.98;4.35;;;7.80;99.90;;;;;;4979431;28;20034;-80
2022/10/12 06:02:11;;;;;;;8.48;4.00;;;7.70;99.90;;;;;;5005683;28;20038;-81
2022/10/12 06:04:37;;;;;;;9.48;3.92;;;7.60;99.90;;;;;;5010297;28;20037;-80
2022/10/12 06:07:03;;;;;;;11.15;4.20;;;7.20;99.90;;;;;;4987151;28;20033;-79
2022/10/12 06:09:28;;;;;;;13.15;4.93;;;7.70;99.90;;;;;;5021442;28;20045;-79
2022/10/12 06:11:54;;;;;;;15.15;3.95;;;7.50;99.90;;;;;;4989481;28;20235;-79
2022/10/12 06:14:20;;;;;;;12.45;4.13;;;7.50;99.90;;;;;;5011211;28;20050;-80
2022/10/12 06:16:45;;;;;;;8.77;3.92;;;7.50;99.90;;;;;;4999204;28;20305;-77
2022/10/12 06:19:11;;;;;;;8.75;4.03;;;8.10;99.90;;;;;;5011732;28;20037;-78
2022/10/12 06:21:37;;;;;;;16.33;6.95;;;7.40;99.90;;;;;;4998590;28;20069;-80
2022/10/12 06:24:03;;;;;;;12.93;4.60;;;7.40;99.90;;;;;;5015018;28;20041;-78
2022/10/12 06:26:29;;;;;;;13.73;5.20;;;7.40;99.90;;;;;;4999743;28;20042;-80
2022/10/12 06:28:54;;;;;;;11.20;4.00;;;8.40;99.90;;;;;;4994618;28;20068;-81
2022/10/12 06:31:20;;;;;;;12.50;4.85;;;7.90;99.90;;;;;;5009656;28;20089;-80
2022/10/12 06:33:46;;;;;;;10.32;4.85;;;7.40;99.90;;;;;;4998557;28;20037;-79
2022/10/12 06:36:12;;;;;;;13.45;6.00;;;8.00;99.90;;;;;;4999842;28;20034;-79
2022/10/12 06:38:38;;;;;;;12.55;5.93;;;7.50;99.90;;;;;;4996497;28;20041;-79
2022/10/12 06:41:03;;;;;;;19.63;6.10;;;7.50;99.90;;;;;;5025393;28;20098;-80
2022/10/12 06:43:29;;;;;;;14.05;6.40;;;7.50;99.90;;;;;;5002464;28;20073;-79
2022/10/12 06:45:59;;;;;;;12.88;5.90;;;7.70;99.90;;;;;;4981081;28;20145;-82
2022/10/12 06:48:25;;;;;;;14.50;7.35;;;8.10;99.90;;;;;;5010072;28;20505;-83
2022/10/12 06:50:51;;;;;;;16.45;7.05;;;8.30;99.90;;;;;;4999471;28;20045;-81
2022/10/12 06:53:16;;;;;;;17.80;7.00;;;8.60;99.90;;;;;;5006784;28;20401;-79
2022/10/12 06:55:42;;;;;;;12.95;7.63;;;8.90;99.90;;;;;;5000891;28;20131;-82
2022/10/12 06:58:08;;;;;;;12.25;5.60;;;9.30;99.90;;;;;;5015620;28;20038;-80
2022/10/12 07:00:33;;;;;;;11.15;6.43;;;9.50;99.90;;;;;;4998096;28;20462;-81
2022/10/12 07:02:59;;;;;;;21.67;8.60;;;9.40;99.90;;;;;;4990978;28;20033;-79
2022/10/12 07:05:26;;;;;;;16.33;7.60;;;9.30;99.90;;;;;;5032377;28;20619;-80
2022/10/12 07:07:51;;;;;;;18.02;7.03;;;9.20;99.90;;;;;;5001539;28;20757;-79
2022/10/12 07:10:17;;;;;;;17.50;7.57;;;9.10;99.90;;;;;;4997381;28;20125;-81
2022/10/12 07:12:43;;;;;;;13.38;6.22;;;9.50;99.90;;;;;;5005755;28;20034;-80
2022/10/12 07:15:09;;;;;;;17.30;8.68;;;9.20;99.90;;;;;;5027662;28;20079;-80
2022/10/12 07:17:35;;;;;;;17.20;6.80;;;8.80;99.90;;;;;;5007952;28;20073;-82
2022/10/12 07:20:00;;;;;;;13.90;6.63;;;8.90;99.90;;;;;;5015089;28;20072;-79
2022/10/12 07:22:26;;;;;;;13.68;6.97;;;8.90;99.90;;;;;;5001091;28;20041;-79
2022/10/12 07:24:52;;;;;;;13.85;6.60;;;9.20;99.90;;;;;;5002312;28;20036;-82
2022/10/12 07:27:17;;;;;;;19.23;6.63;;;9.20;99.90;;;;;;4987310;28;20108;-78
2022/10/12 07:29:43;;;;;;;17.15;6.60;;;9.00;99.90;;;;;;5002357;28;20517;-79
2022/10/12 07:32:09;;;;;;;13.98;6.30;;;9.10;99.90;;;;;;4986485;28;20309;-81
2022/10/12 07:34:34;;;;;;;16.75;6.07;;;9.20;99.90;;;;;;4993623;28;20311;-79
2022/10/12 07:37:00;;;;;;;17.85;6.68;;;9.30;99.90;;;;;;5000935;28;20061;-79
2022/10/12 07:39:36;;;;;;;;;;;;;;;;;;;;;
2022/10/12 07:46:35;;;;;;;10.88;5.80;;;9.70;99.90;;;;;;4978218;28;19985;-79
2022/10/12 07:49:25;;;;;;;11.13;6.00;;;9.10;99.90;;;;;;4997112;28;20437;-81
2022/10/12 07:51:53;;;;;;;16.40;6.18;;;9.50;99.90;;;;;;4974584;28;20030;-80
2022/10/12 07:54:31;;;;;;;17.52;7.10;;;9.50;99.90;;;;;;4991959;28;20090;-81
2022/10/12 07:57:07;;;;;;;14.32;5.65;;;9.00;99.90;;;;;;4989491;28;20107;-80
2022/10/12 07:59:53;;;;;;;14.83;6.10;;;9.30;99.90;;;;;;5029119;28;20509;-77
2022/10/12 08:02:31;;;;;;;18.95;5.85;;;9.80;99.90;;;;;;5000574;28;20037;-80
2022/10/12 08:05:36;;;;;;;13.38;5.43;;;9.90;99.90;;;;;;5006397;28;20120;-81
2022/10/12 08:08:47;;;;;;;12.80;5.32;;;10.00;99.90;;;;;;5013852;28;20041;-81
2022/10/12 08:11:16;;;;;;;12.75;4.57;;;10.00;99.90;;;;;;4999532;28;20048;-80
2022/10/12 08:13:42;;;;;;;12.73;5.78;;;10.20;99.90;;;;;;5026193;28;20444;-82
2022/10/12 08:16:53;;;;;;;15.38;5.25;;;10.20;99.90;;;;;;4989742;28;20129;-81
2022/10/12 08:19:19;;;;;;;12.07;5.47;;;10.30;99.90;;;;;;5028911;28;20128;-80
2022/10/12 08:21:57;;;;;;;15.68;5.32;;;10.40;99.90;;;;;;4998605;28;20192;-85
2022/10/12 08:24:23;;;;;;;12.75;5.57;;;10.70;99.90;;;;;;4996412;28;20075;-86
2022/10/12 08:26:49;;;;;;;11.77;4.07;;;10.80;99.90;;;;;;4989102;28;20491;-86
2022/10/12 08:29:14;;;;;;;12.60;4.78;;;11.10;99.90;;;;;;4998882;28;20468;-84
2022/10/12 08:31:40;;;;;;;13.32;4.35;;;11.00;99.90;;;;;;4993162;28;20393;-84
2022/10/12 08:34:07;;;;;;;14.00;4.68;;;11.20;99.90;;;;;;4983527;28;20033;-83
2022/10/12 08:36:33;;;;;;;10.85;4.70;;;11.40;99.90;;;;;;4991583;28;20112;-83
2022/10/12 08:38:58;;;;;;;12.60;5.53;;;11.50;99.90;;;;;;5000833;28;20052;-83
2022/10/12 08:41:44;;;;;;;12.23;4.47;;;11.60;99.90;;;;;;5011805;28;20136;-84
2022/10/12 08:44:40;;;;;;;15.05;4.95;;;11.70;99.90;;;;;;5015785;28;20176;-83
2022/10/12 08:47:18;;;;;;;11.07;4.40;;;11.80;99.90;;;;;;5019544;28;20496;-82
2022/10/12 08:49:46;;;;;;;12.38;4.65;;;12.00;99.90;;;;;;5002520;28;20037;-82
2022/10/12 08:52:35;;;;;;;17.85;4.53;;;12.00;99.90;;;;;;5022562;28;20098;-79
2022/10/12 08:55:27;;;;;;;15.35;4.75;;;12.10;99.90;;;;;;5015942;28;20033;-81
2022/10/12 08:57:53;;;;;;;15.95;5.00;;;12.20;99.90;;;;;;4996322;28;20045;-83
2022/10/12 09:00:22;;;;;;;8.90;4.53;;;12.40;99.90;;;;;;5017146;28;20097;-82
2022/10/12 09:03:19;;;;;;;19.63;5.70;;;12.50;99.90;;;;;;4996382;28;20106;-82
2022/10/12 09:05:56;;;;;;;17.17;6.18;;;12.60;99.90;;;;;;5010976;28;20043;-79
2022/10/12 09:08:43;;;;;;;11.70;4.30;;;12.70;99.90;;;;;;5002770;28;22380;-81
2022/10/12 09:11:44;;;;;;;12.63;4.95;;;12.80;99.90;;;;;;4998208;28;20032;-79
2022/10/12 09:14:18;;;;;;;16.65;6.78;;;13.00;99.90;;;;;;4910129;29;20052;-83
2022/10/12 09:16:47;;;;;;;12.75;5.15;;;12.90;99.90;;;;;;4999863;28;20061;-81
2022/10/12 09:19:19;;;;;;;16.70;5.30;;;13.00;99.90;;;;;;5000924;28;20041;-82
2022/10/12 09:21:47;;;;;;;13.52;4.57;;;13.10;99.90;;;;;;5032153;28;20393;-82
2022/10/12 09:24:22;;;;;;;13.40;4.70;;;13.20;99.90;;;;;;5012013;28;20034;-81
2022/10/12 09:26:51;;;;;;;17.60;5.65;;;13.30;99.90;;;;;;5002686;28;20077;-81
2022/10/12 09:29:25;;;;;;;14.75;4.65;;;13.40;99.90;;;;;;5024600;28;20073;-82
2022/10/12 09:32:26;;;;;;;16.05;5.78;;;12.80;99.90;;;;;;5017760;28;20568;-81
2022/10/12 09:34:53;;;;;;;14.27;4.28;;;13.60;99.90;;;;;;5008057;28;20488;-83
2022/10/12 09:37:22;;;;;;;15.63;5.32;;;13.80;99.90;;;;;;4978291;28;20489;-81
2022/10/12 09:39:48;;;;;;;14.25;4.63;;;14.00;99.90;;;;;;5012620;28;20068;-81
2022/10/12 09:42:14;;;;;;;15.25;4.18;;;14.10;99.90;;;;;;5014137;28;20386;-82
2022/10/12 09:44:46;;;;;;;14.27;4.03;;;14.30;99.90;;;;;;4997764;28;20288;-83
2022/10/12 09:47:33;;;;;;;14.00;4.50;;;14.40;99.90;;;;;;5018162;28;20045;-83
2022/10/12 09:50:01;;;;;;;11.13;4.57;;;14.50;99.90;;;;;;5005716;28;20134;-82
2022/10/12 09:52:34;;;;;;;14.55;4.18;;;14.60;99.90;;;;;;4986142;28;20041;-83
2022/10/12 09:55:10;;;;;;;15.57;4.10;;;14.70;99.90;;;;;;4984951;28;20102;-82
2022/10/12 09:58:11;;;;;;;15.80;5.78;;;14.80;99.90;;;;;;5020746;28;20034;-81
2022/10/12 10:00:36;;;;;;;15.48;3.67;;;14.90;99.90;;;;;;5002478;28;20042;-81
2022/10/12 10:03:02;;;;;;;17.42;4.00;;;15.00;99.90;;;;;;5000985;28;20112;-82
2022/10/12 10:05:36;;;;;;;11.15;3.17;;;15.00;99.90;;;;;;5011841;28;20037;-82
2022/10/12 10:08:22;;;;;;;15.90;3.50;;;15.10;99.90;;;;;;4989800;28;20160;-82
2022/10/12 10:10:54;;;;;;;12.65;2.53;;;15.20;99.90;;;;;;5005363;28;20046;-80
2022/10/12 10:13:36;;;;;;;13.25;3.33;;;15.30;99.90;;;;;;4983568;28;20128;-79
2022/10/12 10:16:07;;;;;;;12.52;3.45;;;15.40;99.90;;;;;;5011456;28;20101;-82
2022/10/12 10:18:35;;;;;;;14.48;3.67;;;15.50;99.90;;;;;;5019356;28;20132;-79
2022/10/12 10:21:06;;;;;;;12.68;3.15;;;15.60;99.90;;;;;;4996259;28;20033;-83
2022/10/12 10:23:54;;;;;;;12.38;3.03;;;15.70;99.90;;;;;;4984574;28;20504;-81
2022/10/12 10:26:22;;;;;;;10.25;2.88;;;15.80;99.90;;;;;;5002637;28;20406;-83
2022/10/12 10:28:54;;;;;;;15.13;3.50;;;15.90;99.90;;;;;;5019175;28;20524;-81
2022/10/12 10:31:26;;;;;;;10.00;2.88;;;16.00;99.90;;;;;;5030166;28;20045;-80
2022/10/12 10:34:16;;;;;;;13.43;4.32;;;15.90;99.90;;;;;;5015234;28;20433;-80
2022/10/12 10:37:03;;;;;;;11.88;3.58;;;16.20;99.90;;;;;;5031279;28;20082;-80
2022/10/12 10:39:51;;;;;;;8.98;2.38;;;16.10;99.90;;;;;;5011333;28;20158;-80
2022/10/12 10:42:36;;;;;;;11.23;3.30;;;16.30;99.90;;;;;;5042505;23;20137;-82
2022/10/12 10:45:43;;;;;;;11.00;2.88;;;16.50;99.90;;;;;;5036097;28;20040;-80
2022/10/12 10:48:28;;;;;;;14.63;3.13;;;17.10;99.90;;;;;;5026281;28;20424;-81
2022/10/12 10:50:59;;;;;;;13.80;3.20;;;16.70;99.80;;;;;;5030515;28;20036;-81
2022/10/12 10:53:29;;;;;;;10.98;2.72;;;17.20;99.60;;;;;;5039484;28;20098;-82
2022/10/12 10:56:35;;;;;;;12.52;2.83;;;16.80;99.30;;;;;;5027173;28;20223;-84
2022/10/12 10:59:28;;;;;;;13.40;3.63;;;16.90;99.00;;;;;;5019424;28;20124;-81
2022/10/12 11:01:56;;;;;;;12.52;2.83;;;16.90;98.70;;;;;;5044108;28;20037;-83
2022/10/12 11:04:31;;;;;;;8.20;2.83;;;17.00;98.50;;;;;;5044217;28;20037;-83
2022/10/12 11:07:22;;;;;;;14.27;3.45;;;16.90;98.30;;;;;;5023046;28;20037;-81
2022/10/12 11:09:54;;;;;;;9.90;2.50;;;17.00;98.20;;;;;;5005620;28;20455;-84
2022/10/12 11:12:30;;;;;;;11.45;2.70;;;17.10;98.10;;;;;;5023990;28;20041;-83
2022/10/12 11:15:22;;;;;;;14.75;2.88;;;17.20;98.10;;;;;;5007817;28;20406;-82
2022/10/12 11:18:10;;;;;;;12.65;3.05;;;17.40;97.90;;;;;;5033604;28;20056;-82
2022/10/12 11:20:44;;;;;;;14.88;2.70;;;17.40;97.70;;;;;;5037680;28;20052;-82
2022/10/12 11:23:27;;;;;;;12.80;3.72;;;17.50;97.60;;;;;;5006306;28;20123;-83
2022/10/12 11:26:14;;;;;;;14.27;3.63;;;17.60;97.40;;;;;;5026462;28;20033;-81
2022/10/12 11:28:40;;;;;;;11.63;3.95;;;17.60;97.30;;;;;;5047769;28;20116;-83
2022/10/12 11:31:16;;;;;;;10.55;2.80;;;17.70;97.20;;;;;;5032840;28;20049;-82
2022/10/12 11:33:43;;;;;;;13.00;3.08;;;17.80;97.20;;;;;;5043608;28;20048;-85
2022/10/12 11:36:14;;;;;;;7.68;3.22;;;17.90;97.50;;;;;;5062532;28;20037;-84
2022/10/12 11:38:54;;;;;;;9.55;3.05;;;17.90;97.10;;;;;;5041739;28;20052;-82
2022/10/12 11:41:44;;;;;;;9.77;3.50;;;18.00;96.90;;;;;;5017098;28;20041;-83
2022/10/12 11:44:26;;;;;;;8.05;2.85;;;18.00;96.90;;;;;;5051031;28;20041;-84
2022/10/12 11:47:01;;;;;;;13.50;3.72;;;18.00;96.00;;;;;;5031030;28;20083;-84
2022/10/12 11:49:51;;;;;;;12.55;2.83;;;18.00;96.30;;;;;;5012239;28;20484;-81
2022/10/12 11:52:19;;;;;;;6.78;2.70;;;18.00;95.70;;;;;;5042548;28;20037;-82
2022/10/12 11:54:51;;;;;;;12.88;3.00;;;18.10;95.50;;;;;;5017541;28;20500;-80
2022/10/12 11:57:37;;;;;;;12.13;3.22;;;18.20;95.80;;;;;;5029610;28;20041;-83
2022/10/12 12:00:25;;;;;;;13.85;3.08;;;18.20;95.30;;;;;;5012260;28;20037;-83
2022/10/12 12:03:27;;;;;;;10.10;3.38;;;18.30;95.60;;;;;;5006892;28;20377;-80
2022/10/12 12:05:53;;;;;;;9.70;3.25;;;18.20;95.60;;;;;;5026426;28;20570;-82
2022/10/12 12:08:54;;;;;;;10.07;3.13;;;18.20;95.60;;;;;;5019499;28;20029;-81
2022/10/12 12:11:34;;;;;;;11.48;3.17;;;18.00;94.40;;;;;;5033942;28;20033;-82
2022/10/12 12:14:25;;;;;;;12.57;3.25;;;17.90;95.30;;;;;;5025995;28;20595;-82
2022/10/12 12:17:21;;;;;;;12.85;3.17;;;17.80;95.20;;;;;;5014984;28;20060;-82
2022/10/12 12:19:59;;;;;;;11.35;3.42;;;17.90;94.80;;;;;;5025579;28;20060;-85
2022/10/12 12:22:27;;;;;;;22.08;5.78;;;18.00;94.70;;;;;;5034012;22;20102;-65
2022/10/12 12:25:09;;;;;;;9.50;3.55;;;18.00;95.20;;;;;;5004886;28;20077;-67
2022/10/12 12:27:50;;;;;;;10.30;3.30;;;18.20;94.90;;;;;;4976241;28;20042;-66
2022/10/12 12:30:18;;;;;;;8.07;3.45;;;18.20;93.80;;;;;;4976561;28;20218;-66
2022/10/12 12:32:47;;;;;;;11.13;3.25;;;18.20;94.40;;;;;;4954821;28;20046;-68
2022/10/12 12:35:49;;;;;;;13.13;3.15;;;18.20;94.60;;;;;;4988156;28;20574;-66
2022/10/12 12:38:24;;;;;;;17.13;3.70;;;18.20;93.60;;;;;;4974036;28;20050;-65
2022/10/12 12:41:10;;;;;;;11.30;2.42;;;18.20;94.50;;;;;;4964050;28;20103;-65
2022/10/12 12:43:48;;;;;;;9.90;2.90;;;18.30;94.70;;;;;;5003661;28;20046;-65
2022/10/12 12:46:14;;;;;;;11.88;3.78;;;18.50;94.50;;;;;;4980242;28;20037;-68
2022/10/12 12:48:40;;;;;;;14.23;3.60;;;18.50;93.20;;;;;;4996243;28;20137;-66
2022/10/12 12:51:10;;;;;;;18.55;4.03;;;18.40;93.50;;;;;;4988187;28;20128;-67
2022/10/12 12:53:39;;;;;;;11.90;3.03;;;18.40;93.40;;;;;;4992306;28;20649;-69
2022/10/12 12:56:15;;;;;;;10.45;2.97;;;18.40;93.70;;;;;;4969937;28;20042;-66
2022/10/12 12:58:50;;;;;;;10.50;2.72;;;18.60;93.90;;;;;;4959663;28;20556;-66
2022/10/12 13:01:22;;;;;;;9.52;2.78;;;18.60;93.10;;;;;;4977983;28;20080;-62
2022/10/12 13:03:57;;;;;;;8.90;2.30;;;18.50;92.60;;;;;;4985411;28;20949;-65
2022/10/12 13:06:38;;;;;;;8.77;2.35;;;18.50;92.80;;;;;;4977904;28;20256;-65
2022/10/12 13:09:15;;;;;;;11.48;4.15;;;18.50;92.40;;;;;;4958551;28;20437;-67
2022/10/12 13:12:02;;;;;;;12.30;3.30;;;18.40;92.50;;;;;;4984516;28;20034;-66
2022/10/12 13:14:49;;;;;;;11.15;2.63;;;18.40;92.40;;;;;;4984878;28;20069;-64
2022/10/12 13:18:13;;;;;;;9.75;3.00;;;18.50;92.90;;;;;;4990763;28;20671;-68
2022/10/12 13:20:39;;;;;;;9.25;2.40;;;18.60;92.70;;;;;;4918714;29;20058;-64
2022/10/12 13:23:12;;;;;;;8.05;2.78;;;18.60;93.10;;;;;;4937322;28;20042;-64